Time;durP1;ratioP1;P1;durP2;ratioP2;P2;SDS_P1;SDS_P2;PMS_P1;PMS_P2;Temp;Humidity;BMP_temperature;BMP_pressure;BME280_temperature;BME280_humidity;BME280_pressure;Samples;Min_cycle;Max_cycle;Signal;HPM_P1;HPM_P2
2022/09/04 00:01:43;;;;;;;0.40;0.40;;;14.30;99.90;;;;;;5008161;28;20452;-70
2022/09/04 00:05:05;;;;;;;0.60;0.60;;;14.20;99.90;;;;;;5014831;28;20406;-71
2022/09/04 00:07:37;;;;;;;0.40;0.40;;;;;;;;;;4935203;29;20469;-72
2022/09/04 00:10:18;;;;;;;1.53;1.43;;;13.70;99.90;;;;;;4934877;29;20430;-70
2022/09/04 00:13:12;;;;;;;0.57;0.57;;;14.00;99.90;;;;;;4993290;28;20513;-70
2022/09/04 00:15:47;;;;;;;0.80;0.70;;;14.00;99.90;;;;;;5014409;28;20435;-70
2022/09/04 00:18:22;;;;;;;0.60;0.60;;;14.00;99.90;;;;;;5014360;28;20473;-72
2022/09/04 00:21:20;;;;;;;0.30;0.30;;;14.20;99.90;;;;;;5014270;28;20405;-71
2022/09/04 00:23:49;;;;;;;0.60;0.60;;;;;;;;;;5014143;28;20414;-71
2022/09/04 00:26:39;;;;;;;0.40;0.40;;;14.00;99.90;;;;;;5014095;28;20783;-69
2022/09/04 00:29:23;;;;;;;0.60;0.60;;;14.10;99.90;;;;;;4976886;28;20462;-69
2022/09/04 00:32:33;;;;;;;0.83;0.83;;;13.70;99.90;;;;;;5014176;28;20402;-70
2022/09/04 00:35:04;;;;;;;1.63;1.53;;;13.80;99.90;;;;;;4934683;29;20426;-69
2022/09/04 00:37:49;;;;;;;2.10;0.50;;;13.80;99.90;;;;;;5005675;28;20837;-70
2022/09/04 00:41:02;;;;;;;0.80;0.80;;;14.00;99.90;;;;;;5014033;28;20413;-72
2022/09/04 00:43:55;;;;;;;1.13;0.60;;;14.00;99.90;;;;;;4954338;28;20414;-70
2022/09/04 00:47:00;;;;;;;0.83;0.83;;;14.20;99.90;;;;;;5012861;28;20430;-69
2022/09/04 00:49:56;;;;;;;0.50;0.50;;;14.00;99.90;;;;;;4973629;28;20401;-69
2022/09/04 00:53:00;;;;;;;0.57;0.57;;;13.90;99.90;;;;;;5014084;28;20887;-71
2022/09/04 00:55:28;;;;;;;3.17;1.23;;;13.70;99.90;;;;;;5013497;28;20418;-70
2022/09/04 00:58:22;;;;;;;0.30;0.30;;;14.00;99.90;;;;;;5013763;28;20523;-72
2022/09/04 01:00:49;;;;;;;0.50;0.50;;;13.90;99.90;;;;;;5013632;28;20485;-70
2022/09/04 01:03:19;;;;;;;0.40;0.40;;;13.90;99.90;;;;;;5013911;28;20497;-69
2022/09/04 01:06:20;;;;;;;2.10;2.00;;;13.60;99.90;;;;;;5013715;28;20409;-72
2022/09/04 01:09:06;;;;;;;0.50;0.50;;;13.60;99.90;;;;;;4971708;28;20461;-72
2022/09/04 01:11:32;;;;;;;2.03;1.93;;;;;;;;;;5013552;28;20403;-70
2022/09/04 01:14:33;;;;;;;0.40;0.40;;;13.90;99.90;;;;;;5013556;28;20458;-72
2022/09/04 01:16:59;;;;;;;0.50;0.50;;;;;;;;;;5013610;28;20434;-71
2022/09/04 01:19:34;;;;;;;0.60;0.60;;;13.70;99.90;;;;;;5013629;28;20505;-71
2022/09/04 01:22:45;;;;;;;0.33;0.33;;;14.50;99.90;;;;;;5014007;28;20397;-71
2022/09/04 01:25:28;;;;;;;1.10;1.10;;;13.70;99.90;;;;;;5013657;28;20397;-70
2022/09/04 01:28:08;;;;;;;0.67;0.50;;;14.00;99.90;;;;;;5013432;28;20423;-71
2022/09/04 01:30:46;;;;;;;0.60;0.60;;;13.90;99.90;;;;;;5013530;28;20402;-70
2022/09/04 01:33:23;;;;;;;0.73;0.73;;;13.80;99.90;;;;;;5013487;28;20843;-72
2022/09/04 01:36:17;;;;;;;1.07;0.80;;;14.00;99.90;;;;;;5013610;28;20458;-70
2022/09/04 01:38:53;;;;;;;0.40;0.40;;;14.30;99.90;;;;;;5013673;28;20411;-71
2022/09/04 01:41:28;;;;;;;0.47;0.47;;;14.30;99.90;;;;;;5013309;28;20442;-71
2022/09/04 01:43:55;;;;;;;0.30;0.30;;;;;;;;;;5013452;28;20939;-70
2022/09/04 01:46:31;;;;;;;0.50;0.50;;;14.00;99.90;;;;;;5013471;28;20426;-71
2022/09/04 01:49:10;;;;;;;1.37;1.27;;;14.20;99.90;;;;;;5013276;28;20389;-72
2022/09/04 01:51:44;;;;;;;0.40;0.40;;;14.10;99.90;;;;;;5013295;28;20406;-70
2022/09/04 01:54:10;;;;;;;0.30;0.30;;;;;;;;;;5012063;28;20483;-72
2022/09/04 01:56:50;;;;;;;0.40;0.40;;;14.00;99.90;;;;;;5013278;28;20433;-71
2022/09/04 01:59:38;;;;;;;0.50;0.50;;;13.90;99.90;;;;;;5013218;28;20422;-71
2022/09/04 02:02:33;;;;;;;0.50;0.50;;;14.30;99.90;;;;;;5013457;28;20819;-70
2022/09/04 02:05:16;;;;;;;0.30;0.30;;;14.00;99.90;;;;;;5003352;28;20424;-70
2022/09/04 02:07:53;;;;;;;0.63;0.63;;;14.30;99.90;;;;;;5016682;28;20465;-71
2022/09/04 02:10:32;;;;;;;2.50;1.00;;;13.90;99.90;;;;;;5016627;28;20394;-71
2022/09/04 02:13:14;;;;;;;0.30;0.30;;;13.70;99.90;;;;;;5016701;28;20442;-70
2022/09/04 02:16:03;;;;;;;1.73;1.70;;;13.80;99.90;;;;;;5015197;28;20446;-69
2022/09/04 02:18:57;;;;;;;0.40;0.40;;;13.70;99.90;;;;;;5017002;28;20410;-71
2022/09/04 02:21:56;;;;;;;1.03;1.03;;;13.90;99.90;;;;;;5002401;28;20467;-69
2022/09/04 02:24:36;;;;;;;0.40;0.40;;;13.80;99.90;;;;;;5016595;28;20501;-70
2022/09/04 02:27:11;;;;;;;0.47;0.47;;;13.60;99.90;;;;;;5015117;28;20449;-70
2022/09/04 02:30:21;;;;;;;0.70;0.70;;;13.60;99.90;;;;;;5016276;28;20426;-71
2022/09/04 02:33:21;;;;;;;0.50;0.50;;;13.60;99.90;;;;;;4936809;29;20907;-70
2022/09/04 02:36:11;;;;;;;1.43;1.33;;;13.80;99.90;;;;;;4936882;29;20411;-71
2022/09/04 02:38:56;;;;;;;3.30;2.30;;;13.70;99.90;;;;;;5005334;28;20451;-72
2022/09/04 02:41:49;;;;;;;0.80;0.70;;;14.10;99.90;;;;;;5015991;28;20400;-72
2022/09/04 02:44:24;;;;;;;1.07;1.07;;;13.80;99.90;;;;;;5016439;28;20417;-71
2022/09/04 02:47:28;;;;;;;0.63;0.63;;;14.00;99.90;;;;;;5015974;28;20436;-70
2022/09/04 02:50:08;;;;;;;0.50;0.50;;;13.80;99.90;;;;;;5015985;28;20412;-71
2022/09/04 02:53:02;;;;;;;0.60;0.60;;;13.70;99.90;;;;;;5016075;28;20414;-72
2022/09/04 02:55:43;;;;;;;0.50;0.50;;;13.90;99.90;;;;;;5016017;28;20419;-69
2022/09/04 02:58:30;;;;;;;0.70;0.60;;;13.60;99.90;;;;;;5015781;28;20472;-70
2022/09/04 03:01:24;;;;;;;0.50;0.50;;;13.90;99.90;;;;;;5015718;28;20402;-70
2022/09/04 03:03:52;;;;;;;1.23;1.23;;;14.20;99.90;;;;;;5015889;28;20872;-70
2022/09/04 03:06:30;;;;;;;0.30;0.30;;;14.00;99.90;;;;;;5015827;28;20461;-71
2022/09/04 03:09:02;;;;;;;0.87;0.57;;;14.00;99.90;;;;;;5015837;28;20417;-71
2022/09/04 03:11:47;;;;;;;0.40;0.40;;;14.30;99.90;;;;;;5015502;28;20419;-71
2022/09/04 03:14:45;;;;;;;0.60;0.60;;;14.20;99.90;;;;;;5015484;28;20454;-69
2022/09/04 03:17:35;;;;;;;0.30;0.30;;;14.10;99.90;;;;;;5014571;28;20555;-70
2022/09/04 03:20:07;;;;;;;1.17;1.17;;;13.60;99.90;;;;;;5015403;28;20453;-70
2022/09/04 03:22:44;;;;;;;0.67;0.67;;;13.70;99.90;;;;;;5015497;28;20409;-70
2022/09/04 03:25:40;;;;;;;0.60;0.60;;;13.70;99.90;;;;;;5015539;28;20409;-70
2022/09/04 03:28:15;;;;;;;1.53;1.53;;;14.00;99.90;;;;;;5015160;28;20426;-71
2022/09/04 03:30:41;;;;;;;0.57;0.57;;;;;;;;;;5015115;28;20417;-70
2022/09/04 03:33:09;;;;;;;1.10;1.00;;;13.60;99.90;;;;;;5015184;28;20453;-70
2022/09/04 03:35:44;;;;;;;1.17;0.67;;;13.90;99.90;;;;;;5015087;28;20417;-71
2022/09/04 03:38:36;;;;;;;0.67;0.67;;;13.80;99.90;;;;;;5014995;28;20797;-70
2022/09/04 03:41:05;;;;;;;5.03;0.90;;;14.00;99.90;;;;;;5014956;28;20406;-71
2022/09/04 03:43:56;;;;;;;0.70;0.60;;;13.50;99.90;;;;;;5015099;28;20465;-71
2022/09/04 03:46:33;;;;;;;0.60;0.60;;;13.50;99.90;;;;;;5004098;28;20454;-70
2022/09/04 03:49:20;;;;;;;0.30;0.30;;;13.80;99.90;;;;;;5015089;28;20395;-71
2022/09/04 03:52:06;;;;;;;0.40;0.40;;;13.60;99.90;;;;;;5014805;28;20533;-71
2022/09/04 03:54:44;;;;;;;0.40;0.40;;;13.40;99.90;;;;;;5015105;28;20445;-70
2022/09/04 03:57:18;;;;;;;1.53;1.53;;;13.80;99.90;;;;;;5014902;28;20835;-70
2022/09/04 04:00:00;;;;;;;0.40;0.40;;;13.70;99.90;;;;;;5014637;28;20502;-70
2022/09/04 04:02:46;;;;;;;1.23;0.87;;;13.50;99.90;;;;;;5014642;28;20450;-71
2022/09/04 04:05:30;;;;;;;4.37;1.40;;;14.00;99.90;;;;;;5014811;28;20897;-70
2022/09/04 04:08:27;;;;;;;0.83;0.83;;;13.60;99.90;;;;;;5013218;28;20444;-71
2022/09/04 04:11:31;;;;;;;0.40;0.40;;;13.90;99.90;;;;;;5014351;28;20410;-69
2022/09/04 04:14:29;;;;;;;0.77;0.77;;;13.80;99.90;;;;;;5014703;28;20455;-72
2022/09/04 04:17:35;;;;;;;0.40;0.40;;;14.00;99.90;;;;;;5003760;28;20450;-71
2022/09/04 04:20:29;;;;;;;0.40;0.40;;;14.00;99.90;;;;;;5014273;28;20405;-70
2022/09/04 04:23:25;;;;;;;0.73;0.73;;;13.70;99.90;;;;;;5014545;28;20798;-70
2022/09/04 04:26:20;;;;;;;0.60;0.60;;;13.70;99.90;;;;;;5014395;28;20402;-71
2022/09/04 04:29:20;;;;;;;0.57;0.57;;;13.70;99.90;;;;;;5014194;28;20375;-70
2022/09/04 04:32:10;;;;;;;0.87;0.87;;;13.70;99.90;;;;;;5014035;28;20464;-70
2022/09/04 04:34:43;;;;;;;0.60;0.60;;;13.50;99.90;;;;;;5014291;28;20822;-71
2022/09/04 04:37:20;;;;;;;0.47;0.47;;;13.80;99.90;;;;;;5014157;28;20465;-71
2022/09/04 04:39:57;;;;;;;0.77;0.67;;;11.80;99.90;;;;;;5013843;28;20387;-71
2022/09/04 04:42:32;;;;;;;0.63;0.63;;;13.90;99.90;;;;;;5014201;28;20422;-72
2022/09/04 04:48:31;;;;;;;0.50;0.50;;;14.00;99.90;;;;;;5014070;28;20828;-70
2022/09/04 04:51:19;;;;;;;1.00;1.00;;;14.00;99.90;;;;;;5013927;28;20407;-71
2022/09/04 04:53:56;;;;;;;2.00;1.33;;;13.80;99.90;;;;;;5013954;28;20458;-71
2022/09/04 04:56:52;;;;;;;0.40;0.40;;;14.10;99.90;;;;;;5013991;28;20440;-70
2022/09/04 04:59:54;;;;;;;0.30;0.30;;;14.00;99.90;;;;;;5014024;28;20472;-72
2022/09/04 05:02:29;;;;;;;0.30;0.30;;;14.10;99.90;;;;;;5013728;28;20413;-70
2022/09/04 05:05:12;;;;;;;1.67;1.57;;;14.30;99.90;;;;;;5013898;28;20417;-71
2022/09/04 05:08:05;;;;;;;0.70;0.70;;;14.00;99.90;;;;;;5013708;28;20480;-71
2022/09/04 05:10:47;;;;;;;0.50;0.50;;;14.10;99.90;;;;;;5013618;28;20407;-71
2022/09/04 05:13:29;;;;;;;0.40;0.40;;;14.50;99.90;;;;;;5014029;28;20458;-71
2022/09/04 05:16:14;;;;;;;0.97;0.70;;;14.60;99.90;;;;;;5013594;28;20449;-70
2022/09/04 05:18:47;;;;;;;0.70;0.70;;;14.50;99.90;;;;;;5013725;28;20390;-71
2022/09/04 05:21:29;;;;;;;4.87;1.70;;;14.60;99.90;;;;;;5013409;28;20410;-71
2022/09/04 05:24:15;;;;;;;2.60;1.13;;;14.70;99.90;;;;;;5013540;28;20851;-71
2022/09/04 05:27:06;;;;;;;0.30;0.30;;;14.30;99.90;;;;;;5012877;28;20800;-71
2022/09/04 05:29:50;;;;;;;0.70;0.50;;;15.20;99.90;;;;;;5013417;28;20473;-70
2022/09/04 05:32:51;;;;;;;1.27;1.17;;;14.30;99.90;;;;;;5013902;28;20510;-70
2022/09/04 05:36:01;;;;;;;0.83;0.83;;;14.70;99.90;;;;;;5013671;28;20410;-70
2022/09/04 05:39:02;;;;;;;0.40;0.40;;;15.00;99.90;;;;;;5013472;28;20394;-71
2022/09/04 05:41:48;;;;;;;2.13;1.93;;;14.80;99.90;;;;;;5002790;28;20505;-70
2022/09/04 05:44:14;;;;;;;0.90;0.70;;;;;;;;;;5016890;28;20501;-69
2022/09/04 05:46:49;;;;;;;7.37;2.10;;;14.70;99.90;;;;;;5017052;28;20454;-70
2022/09/04 05:49:41;;;;;;;0.60;0.60;;;14.70;99.90;;;;;;5017159;28;20402;-71
2022/09/04 05:52:28;;;;;;;0.50;0.50;;;14.90;99.90;;;;;;5017414;28;20765;-70
2022/09/04 05:55:11;;;;;;;1.90;0.77;;;15.00;99.90;;;;;;5017351;28;20818;-72
2022/09/04 05:57:58;;;;;;;0.80;0.80;;;14.80;99.90;;;;;;5017050;28;20424;-69
2022/09/04 06:00:31;;;;;;;0.97;0.97;;;14.80;99.90;;;;;;5015587;28;20497;-69
2022/09/04 06:03:15;;;;;;;0.60;0.50;;;14.90;99.90;;;;;;5017042;28;20447;-70
2022/09/04 06:05:41;;;;;;;3.73;0.70;;;;;;;;;;5016844;28;20489;-69
2022/09/04 06:08:43;;;;;;;0.40;0.40;;;14.90;99.90;;;;;;5015440;28;20447;-71
2022/09/04 06:11:44;;;;;;;0.40;0.40;;;15.50;99.90;;;;;;5015331;28;20402;-69
2022/09/04 06:14:43;;;;;;;0.43;0.43;;;16.10;99.90;;;;;;5016693;28;20502;-70
2022/09/04 06:17:53;;;;;;;0.63;0.63;;;16.00;99.90;;;;;;5016752;28;20509;-69
2022/09/04 06:20:37;;;;;;;0.40;0.40;;;16.10;99.90;;;;;;5016591;28;20394;-70
2022/09/04 06:23:05;;;;;;;1.90;0.50;;;16.20;99.90;;;;;;5016735;28;20397;-70
2022/09/04 06:26:03;;;;;;;3.27;2.40;;;16.60;99.90;;;;;;5016570;28;20493;-70
2022/09/04 06:28:42;;;;;;;1.67;1.23;;;16.70;99.90;;;;;;5012405;28;20415;-70
2022/09/04 06:31:48;;;;;;;0.67;0.67;;;17.00;99.90;;;;;;5015090;28;20414;-72
2022/09/04 06:34:22;;;;;;;0.80;0.80;;;17.40;99.90;;;;;;4985620;28;20466;-71
2022/09/04 06:37:10;;;;;;;2.20;1.27;;;17.30;99.90;;;;;;5014967;28;20480;-70
2022/09/04 06:40:12;;;;;;;0.97;0.97;;;17.90;99.90;;;;;;5016127;28;20891;-70
2022/09/04 06:43:00;;;;;;;0.90;0.90;;;17.90;99.90;;;;;;4991829;28;20418;-71
2022/09/04 06:45:36;;;;;;;0.80;0.80;;;17.80;99.90;;;;;;5016038;28;20411;-70
2022/09/04 06:48:30;;;;;;;0.87;0.87;;;18.10;99.90;;;;;;5016039;28;20509;-71
2022/09/04 06:51:37;;;;;;;0.93;0.90;;;18.40;99.90;;;;;;5013918;28;20506;-71
2022/09/04 06:54:28;;;;;;;1.03;1.03;;;18.00;99.90;;;;;;4936422;29;20462;-72
2022/09/04 06:56:56;;;;;;;0.93;0.63;;;18.60;99.90;;;;;;4936652;29;20531;-71
2022/09/04 06:59:48;;;;;;;1.03;1.03;;;18.80;99.90;;;;;;4989711;28;20416;-69
2022/09/04 07:02:40;;;;;;;0.60;0.60;;;19.40;99.90;;;;;;5016008;28;20402;-72
2022/09/04 07:05:42;;;;;;;0.70;0.70;;;19.80;99.90;;;;;;5015999;28;20433;-72
2022/09/04 07:08:39;;;;;;;0.87;0.87;;;20.70;99.90;;;;;;5015575;28;20429;-69
2022/09/04 07:11:16;;;;;;;0.47;0.47;;;20.60;99.90;;;;;;5015539;28;20403;-72
2022/09/04 07:14:15;;;;;;;0.57;0.57;;;20.30;99.90;;;;;;5015699;28;20790;-72
2022/09/04 07:16:53;;;;;;;0.67;0.67;;;20.80;99.90;;;;;;5015671;28;20427;-72
2022/09/04 07:19:33;;;;;;;0.80;0.80;;;20.60;99.90;;;;;;5015517;28;20387;-72
2022/09/04 07:22:04;;;;;;;1.07;0.50;;;21.40;99.90;;;;;;5015617;28;20882;-70
2022/09/04 07:24:48;;;;;;;0.50;0.50;;;20.90;99.90;;;;;;5015688;28;20490;-72
2022/09/04 07:27:34;;;;;;;0.70;0.50;;;21.30;99.90;;;;;;5015381;28;20426;-69
2022/09/04 07:30:07;;;;;;;0.97;0.80;;;21.20;99.90;;;;;;5015170;28;20432;-70
2022/09/04 07:33:01;;;;;;;0.93;0.83;;;21.70;99.90;;;;;;5015211;28;20408;-72
2022/09/04 07:35:57;;;;;;;1.23;1.13;;;21.60;99.90;;;;;;5007734;28;20832;-72
2022/09/04 07:38:24;;;;;;;0.80;0.50;;;;;;;;;;5015207;28;20382;-73
2022/09/04 07:40:52;;;;;;;0.40;0.40;;;;;;;;;;5013605;28;20405;-71
2022/09/04 07:43:38;;;;;;;0.80;0.80;;;22.70;99.90;;;;;;5015218;28;20723;-72
2022/09/04 07:46:18;;;;;;;0.97;0.77;;;23.30;99.90;;;;;;5015129;28;20460;-70
2022/09/04 07:48:53;;;;;;;0.50;0.50;;;23.40;99.90;;;;;;5014908;28;20441;-72
2022/09/04 07:51:24;;;;;;;0.97;0.50;;;23.70;99.90;;;;;;5014720;28;20399;-73
2022/09/04 07:54:05;;;;;;;0.30;0.30;;;24.10;99.90;;;;;;5014779;28;20475;-71
2022/09/04 07:57:02;;;;;;;0.87;0.60;;;24.10;99.90;;;;;;5014939;28;20428;-71
2022/09/04 07:59:28;;;;;;;0.63;0.50;;;;;;;;;;5014739;28;20360;-72
2022/09/04 08:01:54;;;;;;;0.50;0.50;;;;;;;;;;5014642;28;20402;-73
2022/09/04 08:04:36;;;;;;;0.60;0.60;;;24.90;95.70;;;;;;5014687;28;20380;-73
2022/09/04 08:07:06;;;;;;;0.50;0.50;;;25.20;99.90;;;;;;5014901;28;20784;-72
2022/09/04 08:10:05;;;;;;;0.80;0.73;;;25.20;95.50;;;;;;5014794;28;20437;-70
2022/09/04 08:12:39;;;;;;;0.70;0.70;;;25.60;99.90;;;;;;5014769;28;20742;-72
2022/09/04 08:15:36;;;;;;;1.37;0.60;;;26.10;97.20;;;;;;5014265;28;20484;-70
2022/09/04 08:18:34;;;;;;;0.60;0.60;;;26.20;99.90;;;;;;5014373;28;20449;-73
2022/09/04 08:21:20;;;;;;;0.40;0.40;;;27.60;99.90;;;;;;4997276;28;20827;-73
2022/09/04 08:23:58;;;;;;;0.30;0.30;;;28.80;99.90;;;;;;5014455;28;20891;-71
2022/09/04 08:26:38;;;;;;;0.30;0.30;;;30.10;99.90;;;;;;5014336;28;20434;-73
2022/09/04 08:29:11;;;;;;;0.60;0.60;;;32.10;99.90;;;;;;5014519;28;20410;-73
2022/09/04 08:32:04;;;;;;;0.40;0.40;;;32.10;72.10;;;;;;5014125;28;20501;-73
2022/09/04 08:34:58;;;;;;;0.50;0.50;;;35.30;91.90;;;;;;5014300;28;20458;-71
2022/09/04 08:37:26;;;;;;;0.30;0.30;;;36.00;59.50;;;;;;4973766;28;20445;-70
2022/09/04 08:40:03;;;;;;;0.77;0.70;;;35.80;91.00;;;;;;5014093;28;20442;-71
2022/09/04 08:43:04;;;;;;;0.40;0.40;;;37.00;78.50;;;;;;5014138;28;20402;-71
2022/09/04 08:45:48;;;;;;;0.40;0.40;;;36.90;81.00;;;;;;4970368;28;20526;-70
2022/09/04 08:48:40;;;;;;;0.40;0.40;;;37.30;72.10;;;;;;5013832;28;20472;-72
2022/09/04 08:51:34;;;;;;;0.40;0.40;;;37.90;48.90;;;;;;5012536;28;20423;-70
2022/09/04 08:54:30;;;;;;;0.40;0.40;;;38.20;72.80;;;;;;5013642;28;20818;-72
2022/09/04 08:57:14;;;;;;;0.40;0.40;;;38.60;65.30;;;;;;5014040;28;20457;-71
2022/09/04 08:59:52;;;;;;;0.50;0.50;;;39.20;59.80;;;;;;5013636;28;20394;-70
2022/09/04 09:02:26;;;;;;;0.40;0.37;;;39.00;58.20;;;;;;5013891;28;20394;-71
2022/09/04 09:05:10;;;;;;;0.30;0.30;;;38.90;73.00;;;;;;5013698;28;20406;-72
2022/09/04 09:07:58;;;;;;;0.40;0.40;;;39.20;39.60;;;;;;5013757;28;20919;-71
2022/09/04 09:10:37;;;;;;;0.40;0.40;;;39.40;58.40;;;;;;5013690;28;20402;-72
2022/09/04 09:13:35;;;;;;;0.50;0.50;;;39.20;35.00;;;;;;5013616;28;20398;-71
2022/09/04 09:16:42;;;;;;;0.40;0.40;;;39.00;67.50;;;;;;5016060;28;20872;-70
2022/09/04 09:19:36;;;;;;;0.40;0.40;;;38.90;70.40;;;;;;4938091;29;20426;-71
2022/09/04 09:22:38;;;;;;;0.40;0.40;;;38.70;59.10;;;;;;4938206;29;20828;-69
2022/09/04 09:25:23;;;;;;;0.40;0.40;;;39.00;34.10;;;;;;5011637;28;20418;-71
2022/09/04 09:28:09;;;;;;;0.50;0.40;;;40.40;33.40;;;;;;5017888;28;20938;-70
2022/09/04 09:30:53;;;;;;;0.50;0.50;;;39.80;33.50;;;;;;5017339;28;20414;-71
2022/09/04 09:33:34;;;;;;;0.40;0.40;;;38.50;60.00;;;;;;5017612;28;20541;-70
2022/09/04 09:36:11;;;;;;;0.50;0.50;;;37.10;35.80;;;;;;5017548;28;20406;-71
2022/09/04 09:39:10;;;;;;;0.40;0.40;;;37.10;33.50;;;;;;5017525;28;20404;-70
2022/09/04 09:41:50;;;;;;;1.00;0.43;;;37.20;68.10;;;;;;5017179;28;20414;-70
2022/09/04 09:44:34;;;;;;;0.40;0.40;;;37.10;34.90;;;;;;5017299;28;20417;-71
2022/09/04 09:47:18;;;;;;;0.60;0.60;;;36.90;64.00;;;;;;5017223;28;20914;-69
2022/09/04 09:50:12;;;;;;;0.60;0.50;;;36.90;68.60;;;;;;5017049;28;20422;-71
2022/09/04 09:52:37;;;;;;;0.60;0.47;;;;;;;;;;5017105;28;20406;-70
2022/09/04 09:55:30;;;;;;;0.40;0.30;;;34.80;71.00;;;;;;5017017;28;20460;-70
2022/09/04 09:58:14;;;;;;;0.40;0.40;;;34.30;75.20;;;;;;5016968;28;20438;-70
2022/09/04 10:01:01;;;;;;;0.70;0.60;;;33.10;38.10;;;;;;5016814;28;20399;-71
2022/09/04 10:04:10;;;;;;;0.70;0.60;;;32.60;79.90;;;;;;5017095;28;20406;-71
2022/09/04 10:07:18;;;;;;;0.47;0.47;;;32.00;77.90;;;;;;4984529;28;20442;-70
2022/09/04 10:10:07;;;;;;;0.40;0.40;;;30.80;84.50;;;;;;5016803;28;20921;-71
2022/09/04 10:13:02;;;;;;;0.47;0.47;;;29.90;87.50;;;;;;4998598;28;20919;-71
2022/09/04 10:15:28;;;;;;;0.60;0.60;;;;;;;;;;5016691;28;20425;-70
2022/09/04 10:18:10;;;;;;;3.37;0.63;;;29.30;90.70;;;;;;5016519;28;20497;-71
2022/09/04 10:20:45;;;;;;;0.50;0.50;;;28.80;90.10;;;;;;5016623;28;20913;-71
2022/09/04 10:23:36;;;;;;;0.40;0.40;;;27.90;90.40;;;;;;5016697;28;20405;-69
2022/09/04 10:26:22;;;;;;;0.40;0.40;;;27.50;96.00;;;;;;5004835;28;20414;-70
2022/09/04 10:29:12;;;;;;;0.40;0.40;;;26.80;94.40;;;;;;5016599;28;20461;-71
2022/09/04 10:31:53;;;;;;;1.00;0.90;;;;;;;;;;5016419;28;20402;-69
2022/09/04 10:34:25;;;;;;;0.53;0.53;;;27.70;89.90;;;;;;5016183;28;20450;-70
2022/09/04 10:37:06;;;;;;;0.60;0.60;;;;;;;;;;5014945;28;20430;-71
2022/09/04 10:42:17;;;;;;;1.30;0.57;;;;;;;;;;5016370;28;20914;-70
2022/09/04 10:44:57;;;;;;;0.40;0.40;;;27.20;92.20;;;;;;5014815;28;20402;-69
2022/09/04 10:48:07;;;;;;;0.50;0.50;;;27.00;93.20;;;;;;5016011;28;20426;-69
2022/09/04 10:51:10;;;;;;;0.70;0.70;;;26.30;64.10;;;;;;4936371;29;20458;-71
2022/09/04 10:54:05;;;;;;;2.40;1.90;;;25.70;65.50;;;;;;4936462;29;20868;-70
2022/09/04 10:57:02;;;;;;;0.50;0.40;;;25.00;94.70;;;;;;5009594;28;20928;-71
2022/09/04 10:59:37;;;;;;;0.60;0.60;;;24.90;96.00;;;;;;5016069;28;20402;-70
2022/09/04 11:02:39;;;;;;;1.20;1.10;;;24.30;63.40;;;;;;5015850;28;20795;-71
2022/09/04 11:05:19;;;;;;;0.63;0.63;;;24.10;71.70;;;;;;5015754;28;20442;-70
2022/09/04 11:08:20;;;;;;;1.03;0.93;;;24.30;96.70;;;;;;5014416;28;20531;-68
2022/09/04 11:11:08;;;;;;;0.60;0.50;;;24.60;97.20;;;;;;5015547;28;20465;-71
2022/09/04 11:13:42;;;;;;;0.50;0.40;;;24.60;98.20;;;;;;5015582;28;20438;-72
2022/09/04 11:16:08;;;;;;;0.70;0.63;;;;;;;;;;5015362;28;20826;-73
2022/09/04 11:19:17;;;;;;;0.50;0.50;;;24.20;84.10;;;;;;5015488;28;20486;-71
2022/09/04 11:22:21;;;;;;;0.60;0.60;;;23.80;99.90;;;;;;4989379;28;20446;-73
2022/09/04 11:25:12;;;;;;;0.50;0.40;;;24.30;99.90;;;;;;5003517;28;20428;-72
2022/09/04 11:28:05;;;;;;;0.50;0.40;;;24.10;84.10;;;;;;5015450;28;20418;-71
2022/09/04 11:31:09;;;;;;;0.57;0.57;;;23.90;99.90;;;;;;5015486;28;20453;-73
2022/09/04 11:33:47;;;;;;;0.40;0.40;;;;;;;;;;4975224;28;20461;-73
2022/09/04 11:36:51;;;;;;;1.27;0.40;;;24.20;99.90;;;;;;5015315;28;20385;-71
2022/09/04 11:39:44;;;;;;;0.90;0.60;;;23.60;99.90;;;;;;4919140;29;20509;-72
2022/09/04 11:42:38;;;;;;;0.60;0.60;;;23.70;95.40;;;;;;4935760;29;20398;-71
2022/09/04 11:45:22;;;;;;;1.30;1.13;;;23.50;99.90;;;;;;5003131;28;20410;-73
2022/09/04 11:48:11;;;;;;;1.13;1.13;;;23.90;94.40;;;;;;5014910;28;20397;-72
2022/09/04 11:50:56;;;;;;;0.80;0.80;;;24.00;85.60;;;;;;5014798;28;20418;-70
2022/09/04 11:53:22;;;;;;;0.40;0.40;;;;;;;;;;5015016;28;20425;-70
2022/09/04 11:56:23;;;;;;;0.40;0.40;;;24.30;82.70;;;;;;5014864;28;20722;-71
2022/09/04 11:59:02;;;;;;;0.40;0.40;;;;;;;;;;5014912;28;20390;-73
2022/09/04 12:01:31;;;;;;;1.03;1.03;;;;;;;;;;5014537;28;20399;-72
2022/09/04 12:04:21;;;;;;;0.63;0.63;;;25.30;99.90;;;;;;5014721;28;20370;-73
2022/09/04 12:06:49;;;;;;;0.50;0.50;;;;;;;;;;5014724;28;20511;-72
2022/09/04 12:09:36;;;;;;;0.57;0.57;;;24.60;99.90;;;;;;5014602;28;20836;-71
2022/09/04 12:12:10;;;;;;;0.63;0.63;;;25.00;99.90;;;;;;5014731;28;20395;-72
2022/09/04 12:14:47;;;;;;;0.43;0.43;;;25.50;99.90;;;;;;5014251;28;20977;-71
2022/09/04 12:17:53;;;;;;;0.40;0.40;;;26.00;99.90;;;;;;5014249;28;20398;-71
2022/09/04 12:20:47;;;;;;;0.53;0.53;;;26.10;99.80;;;;;;5014194;28;20925;-71
2022/09/04 12:23:50;;;;;;;0.70;0.60;;;26.20;99.90;;;;;;5014343;28;20369;-70
2022/09/04 12:26:49;;;;;;;0.57;0.57;;;26.10;98.60;;;;;;5014415;28;20505;-70
2022/09/04 12:29:50;;;;;;;1.10;0.87;;;25.70;97.60;;;;;;5013075;28;20910;-72
2022/09/04 12:32:41;;;;;;;0.40;0.40;;;25.80;99.90;;;;;;5014343;28;20765;-73
2022/09/04 12:35:42;;;;;;;0.60;0.60;;;25.80;99.90;;;;;;5014493;28;20508;-72
2022/09/04 12:38:45;;;;;;;0.70;0.70;;;25.90;99.20;;;;;;5014031;28;20396;-71
2022/09/04 12:41:26;;;;;;;0.40;0.40;;;25.70;72.20;;;;;;5013943;28;20406;-72
2022/09/04 12:44:30;;;;;;;0.43;0.43;;;25.10;87.70;;;;;;5014136;28;20488;-73
2022/09/04 12:47:31;;;;;;;0.60;0.60;;;25.10;99.90;;;;;;5014087;28;20422;-73
2022/09/04 12:50:29;;;;;;;0.40;0.40;;;24.90;99.90;;;;;;5013996;28;20422;-73
2022/09/04 12:52:55;;;;;;;0.40;0.40;;;;;;;;;;5013990;28;20381;-71
2022/09/04 12:55:44;;;;;;;0.80;0.63;;;25.50;99.90;;;;;;5014058;28;20464;-71
2022/09/04 12:58:42;;;;;;;0.73;0.73;;;25.70;99.90;;;;;;5013822;28;20412;-72
2022/09/04 13:01:09;;;;;;;0.70;0.40;;;;;;;;;;4986732;28;20393;-71
2022/09/04 13:03:40;;;;;;;0.60;0.60;;;26.20;99.90;;;;;;5013988;28;20433;-70
2022/09/04 13:06:47;;;;;;;0.47;0.47;;;26.30;99.90;;;;;;5013866;28;20911;-71
2022/09/04 13:09:24;;;;;;;0.80;0.80;;;26.00;99.90;;;;;;4991626;28;20922;-73
2022/09/04 13:12:16;;;;;;;1.10;0.40;;;26.20;99.90;;;;;;5013747;28;20761;-73
2022/09/04 13:14:50;;;;;;;0.43;0.40;;;25.50;98.50;;;;;;5013747;28;20460;-71
2022/09/04 13:17:18;;;;;;;0.57;0.57;;;25.50;99.90;;;;;;5013617;28;20479;-73
2022/09/04 13:20:08;;;;;;;0.57;0.57;;;25.60;99.00;;;;;;5013712;28;20507;-73
2022/09/04 13:23:01;;;;;;;1.00;0.97;;;24.80;99.90;;;;;;5013767;28;20382;-71
2022/09/04 13:25:27;;;;;;;0.40;0.40;;;24.40;99.90;;;;;;5013617;28;20427;-70
2022/09/04 13:28:18;;;;;;;0.50;0.50;;;24.10;99.90;;;;;;5013425;28;20393;-73
2022/09/04 13:31:04;;;;;;;0.60;0.60;;;24.10;99.90;;;;;;5013536;28;20191;-73
2022/09/04 13:33:39;;;;;;;0.40;0.40;;;24.10;99.90;;;;;;5013499;28;20417;-73
2022/09/04 13:36:30;;;;;;;0.63;0.60;;;23.30;99.90;;;;;;5013800;28;20881;-70
2022/09/04 13:39:24;;;;;;;0.60;0.60;;;23.30;99.90;;;;;;5012054;28;20770;-73
2022/09/04 13:42:08;;;;;;;0.30;0.30;;;22.00;99.90;;;;;;5012966;28;20435;-73
2022/09/04 13:44:56;;;;;;;0.87;0.50;;;22.60;96.60;;;;;;5013545;28;20726;-70
2022/09/04 13:47:24;;;;;;;0.30;0.30;;;22.40;97.20;;;;;;5013498;28;20931;-72
2022/09/04 13:50:20;;;;;;;0.50;0.50;;;22.10;99.90;;;;;;5013110;28;20418;-73
2022/09/04 13:52:52;;;;;;;0.40;0.40;;;22.40;95.90;;;;;;5013570;28;20410;-72
2022/09/04 13:55:22;;;;;;;0.60;0.60;;;22.70;99.90;;;;;;5013509;28;20532;-73
2022/09/04 13:58:01;;;;;;;0.57;0.57;;;22.60;99.90;;;;;;5013209;28;20422;-72
2022/09/04 14:00:29;;;;;;;0.40;0.40;;;23.10;99.90;;;;;;5011897;28;20410;-71
2022/09/04 14:03:01;;;;;;;0.40;0.40;;;22.90;99.90;;;;;;5017220;28;20413;-71
2022/09/04 14:05:30;;;;;;;0.40;0.40;;;22.70;94.90;;;;;;5015822;28;20413;-73
2022/09/04 14:08:12;;;;;;;0.40;0.40;;;22.70;99.90;;;;;;5016810;28;20433;-73
2022/09/04 14:11:03;;;;;;;0.60;0.60;;;22.30;95.70;;;;;;5016742;28;20409;-72
2022/09/04 14:13:56;;;;;;;0.50;0.50;;;21.80;99.90;;;;;;5016947;28;20455;-72
2022/09/04 14:16:22;;;;;;;0.40;0.30;;;21.50;97.20;;;;;;5016701;28;20451;-72
2022/09/04 14:19:10;;;;;;;0.80;0.50;;;21.00;99.90;;;;;;5016592;28;20416;-70
2022/09/04 14:22:23;;;;;;;0.50;0.50;;;21.10;98.80;;;;;;5016516;28;20397;-72
2022/09/04 14:25:09;;;;;;;0.87;0.87;;;21.00;99.90;;;;;;4981618;28;20420;-72
2022/09/04 14:28:26;;;;;;;0.30;0.30;;;20.80;99.90;;;;;;5016446;28;20427;-71
2022/09/04 14:31:00;;;;;;;0.77;0.77;;;20.60;99.90;;;;;;4961624;28;20419;-72
2022/09/04 14:33:35;;;;;;;0.40;0.40;;;20.40;99.90;;;;;;5016376;28;20840;-71
2022/09/04 14:36:23;;;;;;;0.57;0.57;;;20.30;99.90;;;;;;5016491;28;20785;-70
2022/09/04 14:39:30;;;;;;;0.60;0.60;;;20.70;99.90;;;;;;5016480;28;20428;-71